createdAt,value
2023-01-26T00:01:19.362Z,19.35
2023-01-26T00:03:46.793Z,19.17
2023-01-26T00:06:16.055Z,18.58
2023-01-26T00:08:44.662Z,17.83
2023-01-26T00:11:12.089Z,18.20
2023-01-26T00:13:39.590Z,19.40
2023-01-26T00:16:10.485Z,18.92
2023-01-26T00:18:39.188Z,18.80
2023-01-26T00:21:07.072Z,16.53
2023-01-26T00:23:35.189Z,16.70
2023-01-26T00:26:05.728Z,16.75
2023-01-26T00:28:32.411Z,16.48
2023-01-26T00:31:13.170Z,20.00
2023-01-26T00:33:40.295Z,19.42
2023-01-26T00:36:07.976Z,18.75
2023-01-26T00:38:35.316Z,20.75
2023-01-26T00:41:02.130Z,18.02
2023-01-26T00:43:29.194Z,20.13
2023-01-26T00:45:55.895Z,19.35
2023-01-26T00:48:24.669Z,20.92
2023-01-26T00:50:53.303Z,20.38
2023-01-26T00:53:20.327Z,19.60
2023-01-26T00:55:47.130Z,19.73
2023-01-26T00:58:13.838Z,19.60
2023-01-26T01:00:40.664Z,18.27
2023-01-26T01:03:07.851Z,18.90
2023-01-26T01:05:35.180Z,19.63
2023-01-26T01:08:02.533Z,21.75
2023-01-26T01:10:29.477Z,22.17
2023-01-26T01:12:59.166Z,20.53
2023-01-26T01:15:25.930Z,19.38
2023-01-26T01:17:53.101Z,20.43
2023-01-26T01:20:19.909Z,19.88
2023-01-26T01:22:46.682Z,18.83
2023-01-26T01:25:13.468Z,18.20
2023-01-26T01:27:40.225Z,19.38
2023-01-26T01:32:49.789Z,18.67
2023-01-26T01:35:16.460Z,20.67
2023-01-26T01:37:43.102Z,19.30
2023-01-26T01:40:14.877Z,17.73
2023-01-26T01:42:50.684Z,17.98
2023-01-26T01:45:27.176Z,18.25
2023-01-26T01:47:59.590Z,18.88
2023-01-26T01:50:27.523Z,19.70
2023-01-26T01:52:55.895Z,18.85
2023-01-26T01:55:23.424Z,19.17
2023-01-26T01:57:55.332Z,18.77
2023-01-26T02:00:24.034Z,18.98
2023-01-26T02:03:13.076Z,20.55
2023-01-26T02:06:03.800Z,19.23
2023-01-26T02:08:37.857Z,19.17
2023-01-26T02:11:13.107Z,20.70
2023-01-26T02:13:42.499Z,22.77
2023-01-26T02:16:09.353Z,20.50
2023-01-26T02:18:36.377Z,22.25
2023-01-26T02:21:08.799Z,22.10
2023-01-26T02:23:54.027Z,20.63
2023-01-26T02:26:33.612Z,20.60
2023-01-26T02:29:02.141Z,19.88
2023-01-26T02:31:29.366Z,18.35
2023-01-26T02:33:58.855Z,18.40
2023-01-26T02:36:29.552Z,22.15
2023-01-26T02:39:13.165Z,19.65
2023-01-26T02:41:59.061Z,18.73
2023-01-26T02:44:29.291Z,20.20
2023-01-26T02:46:59.143Z,20.45
2023-01-26T02:49:44.701Z,19.67
2023-01-26T02:55:05.841Z,21.70
2023-01-26T02:57:34.611Z,18.10
2023-01-26T03:00:01.851Z,19.57
2023-01-26T03:02:28.873Z,18.90
2023-01-26T03:04:55.668Z,19.42
2023-01-26T03:07:22.618Z,17.35
2023-01-26T03:09:49.490Z,18.33
2023-01-26T03:12:16.178Z,18.52
2023-01-26T03:14:43.536Z,17.65
2023-01-26T03:17:10.289Z,18.08
2023-01-26T03:19:55.419Z,17.58
2023-01-26T03:22:40.610Z,17.33
2023-01-26T03:27:51.596Z,16.58
2023-01-26T03:30:21.184Z,18.13
2023-01-26T03:32:48.066Z,16.63
2023-01-26T03:35:23.073Z,14.98
2023-01-26T03:37:55.126Z,17.67
2023-01-26T03:40:40.954Z,16.67
2023-01-26T03:43:13.156Z,16.38
2023-01-26T03:45:58.714Z,14.52
2023-01-26T03:48:45.695Z,14.67
2023-01-26T03:51:12.225Z,15.40
2023-01-26T03:53:57.408Z,15.60
2023-01-26T03:56:32.978Z,15.05
2023-01-26T03:59:08.518Z,14.53
2023-01-26T04:01:38.016Z,16.15
2023-01-26T04:04:13.655Z,13.97
2023-01-26T04:07:02.421Z,15.88
2023-01-26T04:09:29.722Z,15.67
2023-01-26T04:11:57.196Z,14.90
2023-01-26T04:14:49.419Z,15.83
2023-01-26T04:17:36.864Z,15.23
2023-01-26T04:20:13.154Z,12.97
2023-01-26T04:22:45.355Z,13.00
2023-01-26T04:25:13.172Z,13.05
2023-01-26T04:27:41.978Z,12.93
2023-01-26T04:30:13.488Z,13.55
2023-01-26T04:32:40.356Z,12.63
2023-01-26T04:35:09.471Z,12.88
2023-01-26T04:37:37.671Z,12.93
2023-01-26T04:40:06.110Z,11.30
2023-01-26T04:42:32.872Z,11.65
2023-01-26T04:44:59.581Z,12.57
2023-01-26T04:47:28.905Z,12.45
2023-01-26T04:49:56.005Z,12.60
2023-01-26T04:52:23.230Z,11.63
2023-01-26T04:54:50.097Z,12.07
2023-01-26T04:57:16.934Z,11.60
2023-01-26T04:59:43.814Z,11.67
2023-01-26T05:02:10.790Z,11.70
2023-01-26T05:04:37.569Z,12.60
2023-01-26T05:07:05.100Z,11.48
2023-01-26T05:09:31.800Z,12.03
2023-01-26T05:12:13.264Z,12.27
2023-01-26T05:14:40.068Z,11.03
2023-01-26T05:17:13.251Z,11.30
2023-01-26T05:19:40.374Z,10.23
2023-01-26T05:22:07.047Z,11.43
2023-01-26T05:24:35.300Z,10.48
2023-01-26T05:29:38.265Z,11.90
2023-01-26T05:32:05.233Z,10.60
2023-01-26T05:34:31.941Z,11.10
2023-01-26T05:36:58.583Z,11.20
2023-01-26T05:39:25.199Z,11.10
2023-01-26T05:41:52.342Z,9.80
2023-01-26T05:44:19.461Z,11.35
2023-01-26T05:46:46.318Z,10.57
2023-01-26T05:49:13.032Z,10.10
2023-01-26T05:51:39.788Z,10.30
2023-01-26T05:54:06.461Z,10.50
2023-01-26T05:56:33.217Z,11.45
2023-01-26T05:59:00.097Z,12.32
2023-01-26T06:01:26.788Z,11.45
2023-01-26T06:03:55.086Z,10.93
2023-01-26T06:06:25.034Z,12.98
2023-01-26T06:08:51.767Z,11.77
2023-01-26T06:11:19.458Z,11.53
2023-01-26T06:13:46.212Z,10.73
2023-01-26T06:16:13.656Z,11.17
2023-01-26T06:18:40.370Z,11.93
2023-01-26T06:21:07.231Z,11.65
2023-01-26T06:23:34.052Z,11.18
2023-01-26T06:26:01.801Z,10.85
2023-01-26T06:28:31.555Z,12.18
2023-01-26T06:31:03.234Z,12.07
2023-01-26T06:33:32.517Z,10.95
2023-01-26T06:36:05.992Z,12.07
2023-01-26T06:38:32.948Z,11.57
2023-01-26T06:41:03.479Z,11.48
2023-01-26T06:43:31.503Z,11.40
2023-01-26T06:46:02.880Z,12.67
2023-01-26T06:48:39.062Z,11.73
2023-01-26T06:51:13.242Z,12.00
2023-01-26T06:53:44.150Z,11.73
2023-01-26T06:56:10.936Z,11.67
2023-01-26T06:58:37.584Z,13.45
2023-01-26T07:01:04.791Z,12.53
2023-01-26T07:03:32.074Z,11.75
2023-01-26T07:05:58.793Z,11.88
2023-01-26T07:08:25.443Z,12.02
2023-01-26T07:10:52.163Z,12.30
2023-01-26T07:13:18.910Z,11.53
2023-01-26T07:15:45.738Z,10.75
2023-01-26T07:18:13.309Z,10.98
2023-01-26T07:20:39.991Z,11.50
2023-01-26T07:23:07.143Z,11.90
2023-01-26T07:25:33.762Z,10.57
2023-01-26T07:28:00.417Z,12.45
2023-01-26T07:30:27.435Z,12.23
2023-01-26T07:32:54.789Z,11.68
2023-01-26T07:35:21.523Z,11.73
2023-01-26T07:37:48.156Z,12.32
2023-01-26T07:40:15.000Z,11.23
2023-01-26T07:42:42.995Z,11.95
2023-01-26T07:45:10.035Z,11.85
2023-01-26T07:47:36.789Z,11.55
2023-01-26T07:50:04.053Z,12.15
2023-01-26T07:52:30.724Z,11.88
2023-01-26T07:54:57.436Z,12.45
2023-01-26T07:57:24.134Z,11.93
2023-01-26T07:59:50.805Z,11.55
2023-01-26T08:02:17.462Z,11.73
2023-01-26T08:04:44.154Z,12.43
2023-01-26T08:07:10.823Z,13.48
2023-01-26T08:09:37.690Z,13.05
2023-01-26T08:12:04.798Z,12.30
2023-01-26T08:14:46.426Z,12.52
2023-01-26T08:17:13.943Z,13.55
2023-01-26T08:19:40.636Z,12.00
2023-01-26T08:22:07.341Z,12.45
2023-01-26T08:24:34.070Z,12.05
2023-01-26T08:27:00.790Z,11.82
2023-01-26T08:29:27.576Z,11.38
2023-01-26T08:31:54.431Z,12.40
2023-01-26T08:34:26.319Z,11.93
2023-01-26T08:36:53.426Z,10.20
2023-01-26T08:39:20.065Z,11.20
2023-01-26T08:41:47.373Z,11.77
2023-01-26T08:44:14.038Z,11.53
2023-01-26T08:46:40.691Z,11.03
2023-01-26T08:49:07.393Z,8.50
2023-01-26T08:51:34.076Z,10.10
2023-01-26T08:54:00.782Z,9.80
2023-01-26T08:56:27.623Z,9.97
2023-01-26T08:58:54.261Z,10.07
2023-01-26T09:01:20.899Z,9.63
2023-01-26T09:03:47.650Z,8.15
2023-01-26T09:06:16.002Z,9.18
2023-01-26T09:08:42.684Z,8.70
2023-01-26T09:11:09.749Z,8.40
2023-01-26T09:13:37.529Z,9.00
2023-01-26T09:16:08.635Z,9.17
2023-01-26T09:18:35.298Z,9.27
2023-01-26T09:21:06.740Z,9.93
2023-01-26T09:23:34.730Z,9.23
2023-01-26T09:26:02.061Z,8.03
2023-01-26T09:28:28.864Z,8.30
2023-01-26T09:30:55.765Z,9.50
2023-01-26T09:33:23.107Z,7.93
2023-01-26T09:35:52.428Z,8.52
2023-01-26T09:38:19.230Z,6.97
2023-01-26T09:40:59.907Z,7.70
2023-01-26T09:43:39.886Z,7.95
2023-01-26T09:46:12.394Z,8.02
2023-01-26T09:49:06.054Z,7.35
2023-01-26T09:51:40.041Z,6.75
2023-01-26T09:54:13.322Z,7.82
2023-01-26T09:56:40.362Z,7.97
2023-01-26T09:59:12.381Z,6.00
2023-01-26T10:02:04.796Z,7.13
2023-01-26T10:04:36.882Z,6.30
2023-01-26T10:07:09.770Z,6.73
2023-01-26T10:09:38.809Z,6.93
2023-01-26T10:12:13.428Z,6.40
2023-01-26T10:14:45.519Z,6.43
2023-01-26T10:17:13.411Z,6.03
2023-01-26T10:19:45.520Z,6.55
2023-01-26T10:22:13.511Z,5.90
2023-01-26T10:24:40.514Z,6.63
2023-01-26T10:27:13.351Z,6.32
2023-01-26T10:29:40.054Z,5.05
2023-01-26T10:32:14.366Z,4.68
2023-01-26T10:34:42.436Z,4.30
2023-01-26T10:37:13.512Z,4.85
2023-01-26T10:39:58.948Z,4.57
2023-01-26T10:42:29.506Z,4.18
2023-01-26T10:44:59.286Z,4.28
2023-01-26T10:47:27.635Z,3.88
2023-01-26T10:50:12.408Z,3.55
2023-01-26T10:52:39.175Z,3.55
2023-01-26T10:55:12.783Z,4.00
2023-01-26T10:57:42.075Z,3.28
2023-01-26T11:00:13.451Z,3.08
2023-01-26T11:02:50.839Z,3.17
2023-01-26T11:05:25.508Z,3.13
2023-01-26T11:07:58.877Z,3.42
2023-01-26T11:10:35.044Z,3.20
2023-01-26T11:13:13.563Z,3.17
2023-01-26T11:15:47.909Z,3.90
2023-01-26T11:18:42.921Z,3.50
2023-01-26T11:21:17.106Z,3.92
2023-01-26T11:24:09.065Z,3.50
2023-01-26T11:26:44.760Z,2.70
2023-01-26T11:32:06.324Z,3.05
2023-01-26T11:34:44.634Z,3.40
2023-01-26T11:37:13.740Z,3.88
2023-01-26T11:40:13.515Z,4.30
2023-01-26T11:43:05.342Z,3.78
2023-01-26T11:46:05.793Z,3.33
2023-01-26T11:48:54.193Z,3.13
2023-01-26T11:51:45.599Z,3.47
2023-01-26T11:54:12.494Z,3.70
2023-01-26T11:56:49.025Z,3.83
2023-01-26T11:59:30.305Z,3.60
2023-01-26T12:02:04.647Z,3.53
2023-01-26T12:04:41.909Z,3.83
2023-01-26T12:07:13.465Z,3.10
2023-01-26T12:09:45.730Z,4.25
2023-01-26T12:12:13.482Z,2.92
2023-01-26T12:14:43.701Z,3.80
2023-01-26T12:17:18.535Z,3.92
2023-01-26T12:20:11.074Z,3.50
2023-01-26T12:22:40.671Z,3.45
2023-01-26T12:25:19.427Z,3.60
2023-01-26T12:27:56.059Z,2.88
2023-01-26T12:30:30.869Z,3.80
2023-01-26T12:32:57.672Z,3.53
2023-01-26T12:36:05.676Z,3.47
2023-01-26T12:38:35.271Z,3.58
2023-01-26T12:41:13.481Z,3.72
2023-01-26T12:43:57.210Z,3.78
2023-01-26T12:46:27.272Z,3.60
2023-01-26T12:49:03.038Z,4.32
2023-01-26T12:51:33.144Z,3.63
2023-01-26T12:54:06.557Z,4.05
2023-01-26T12:56:48.291Z,3.70
2023-01-26T12:59:39.733Z,4.50
2023-01-26T13:02:13.605Z,4.10
2023-01-26T13:04:42.552Z,3.53
2023-01-26T13:07:13.499Z,3.90
2023-01-26T13:10:13.704Z,3.45
2023-01-26T13:13:01.140Z,4.07
2023-01-26T13:15:32.502Z,4.03
2023-01-26T13:18:04.550Z,4.57
2023-01-26T13:20:40.430Z,4.22
2023-01-26T13:23:13.488Z,4.30
2023-01-26T13:25:40.247Z,4.82
2023-01-26T13:28:12.498Z,4.68
2023-01-26T13:30:44.021Z,5.20
2023-01-26T13:33:13.509Z,4.80
2023-01-26T13:35:41.106Z,5.20
2023-01-26T13:38:13.567Z,5.97
2023-01-26T13:40:44.112Z,4.78
2023-01-26T13:43:25.623Z,6.30
2023-01-26T13:46:14.797Z,4.17
2023-01-26T13:48:47.872Z,5.47
2023-01-26T13:51:19.041Z,5.37
2023-01-26T13:54:13.444Z,5.23
2023-01-26T13:56:43.196Z,5.83
2023-01-26T14:01:49.288Z,6.27
2023-01-26T14:04:24.231Z,5.83
2023-01-26T14:06:57.170Z,6.00
2023-01-26T14:09:28.092Z,5.23
2023-01-26T14:12:04.014Z,5.97
2023-01-26T14:14:35.185Z,5.87
2023-01-26T14:17:07.820Z,6.07
2023-01-26T14:19:40.415Z,5.50
2023-01-26T14:22:12.599Z,5.80
2023-01-26T14:24:41.448Z,5.23
2023-01-26T14:27:13.534Z,5.17
2023-01-26T14:29:40.278Z,5.90
2023-01-26T14:32:13.538Z,6.40
2023-01-26T14:34:53.057Z,6.33
2023-01-26T14:37:19.926Z,5.53
2023-01-26T14:39:48.297Z,6.67
2023-01-26T14:42:19.117Z,5.90
2023-01-26T14:44:46.631Z,6.23
2023-01-26T14:47:30.470Z,6.07
2023-01-26T14:50:07.102Z,5.83
2023-01-26T14:52:39.601Z,7.00
2023-01-26T14:55:13.479Z,5.67
2023-01-26T14:57:40.228Z,5.80
2023-01-26T15:00:10.896Z,5.23
2023-01-26T15:02:47.177Z,6.23
2023-01-26T15:05:20.921Z,5.60
2023-01-26T15:07:59.741Z,5.03
2023-01-26T15:13:41.797Z,6.33
2023-01-26T15:16:13.638Z,6.30
2023-01-26T15:18:40.436Z,5.87
2023-01-26T15:21:12.614Z,6.23
2023-01-26T15:23:59.898Z,5.90
2023-01-26T15:26:31.216Z,5.93
2023-01-26T15:29:01.107Z,6.70
2023-01-26T15:31:34.675Z,5.90
2023-01-26T15:34:02.292Z,5.57
2023-01-26T15:36:47.799Z,5.67
2023-01-26T15:39:16.893Z,5.97
2023-01-26T15:41:46.505Z,5.40
2023-01-26T15:44:18.324Z,6.20
2023-01-26T15:46:45.914Z,6.30
2023-01-26T15:49:12.836Z,6.10
2023-01-26T15:51:39.679Z,5.57
2023-01-26T15:54:06.745Z,5.90
2023-01-26T15:56:33.651Z,6.43
2023-01-26T15:59:00.416Z,6.27
2023-01-26T16:01:27.217Z,6.73
2023-01-26T16:03:54.097Z,6.40
2023-01-26T16:06:34.190Z,7.37
2023-01-26T16:09:00.865Z,7.27
2023-01-26T16:11:35.327Z,6.87
2023-01-26T16:14:04.270Z,7.07
2023-01-26T16:16:32.841Z,7.13
2023-01-26T16:18:59.998Z,7.70
2023-01-26T16:21:33.885Z,7.47
2023-01-26T16:24:04.250Z,7.43
2023-01-26T16:26:35.774Z,7.93
2023-01-26T16:29:02.487Z,6.80
2023-01-26T16:31:32.102Z,7.60
2023-01-26T16:34:01.130Z,6.10
2023-01-26T16:36:28.531Z,7.53
2023-01-26T16:38:55.413Z,6.77
2023-01-26T16:41:25.585Z,7.93
2023-01-26T16:43:58.750Z,6.57
2023-01-26T16:46:26.417Z,7.07
2023-01-26T16:48:54.289Z,6.70
2023-01-26T16:51:30.050Z,6.27
2023-01-26T16:53:57.543Z,7.40
2023-01-26T16:56:25.415Z,6.30
2023-01-26T16:58:52.356Z,6.30
2023-01-26T17:01:42.042Z,6.60
2023-01-26T17:04:10.754Z,6.70
2023-01-26T17:06:37.575Z,5.40
2023-01-26T17:09:05.239Z,5.60
2023-01-26T17:11:31.919Z,6.53
2023-01-26T17:13:59.428Z,6.87
2023-01-26T17:16:33.344Z,6.87
2023-01-26T17:19:00.125Z,8.20
2023-01-26T17:21:26.974Z,6.47
2023-01-26T17:23:55.939Z,6.53
2023-01-26T17:26:23.497Z,7.07
2023-01-26T17:28:54.594Z,7.43
2023-01-26T17:31:25.206Z,7.53
2023-01-26T17:33:55.312Z,6.17
2023-01-26T17:36:22.053Z,6.70
2023-01-26T17:38:55.282Z,6.53
2023-01-26T17:41:22.032Z,6.77
2023-01-26T17:43:48.774Z,7.27
2023-01-26T17:46:17.752Z,7.77
2023-01-26T17:48:45.568Z,7.50
2023-01-26T17:51:12.593Z,7.97
2023-01-26T17:53:44.240Z,7.10
2023-01-26T17:58:38.789Z,6.60
2023-01-26T18:01:07.582Z,7.10
2023-01-26T18:03:35.544Z,7.40
2023-01-26T18:06:02.298Z,6.73
2023-01-26T18:08:29.371Z,6.93
2023-01-26T18:11:00.862Z,7.80
2023-01-26T18:13:29.219Z,7.30
2023-01-26T18:15:56.056Z,7.37
2023-01-26T18:18:28.222Z,7.17
2023-01-26T18:20:55.540Z,7.00
2023-01-26T18:23:24.106Z,7.20
2023-01-26T18:25:53.075Z,6.73
2023-01-26T18:28:19.846Z,7.10
2023-01-26T18:30:46.694Z,7.67
2023-01-26T18:33:13.998Z,7.17
2023-01-26T18:35:40.916Z,7.53
2023-01-26T18:38:07.722Z,7.17
2023-01-26T18:40:34.682Z,8.07
2023-01-26T18:43:01.577Z,8.23
2023-01-26T18:45:28.354Z,7.37
2023-01-26T18:47:55.150Z,8.23
2023-01-26T18:50:21.903Z,7.13
2023-01-26T18:52:48.664Z,7.27
2023-01-26T18:55:15.541Z,7.20
2023-01-26T18:57:45.308Z,7.10
2023-01-26T19:02:41.468Z,8.03
2023-01-26T19:07:39.436Z,7.97
2023-01-26T19:10:06.649Z,7.60
2023-01-26T19:12:33.611Z,7.43
2023-01-26T19:15:00.329Z,7.93
2023-01-26T19:17:27.099Z,7.33
2023-01-26T19:19:54.887Z,7.27
2023-01-26T19:22:23.137Z,7.57
2023-01-26T19:24:49.906Z,8.23
2023-01-26T19:27:16.910Z,7.77
2023-01-26T19:29:43.574Z,8.50
2023-01-26T19:32:10.403Z,7.87
2023-01-26T19:34:37.301Z,8.77
2023-01-26T19:37:04.032Z,8.87
2023-01-26T19:39:31.683Z,8.23
2023-01-26T19:42:01.753Z,9.23
2023-01-26T19:44:28.767Z,8.60
2023-01-26T19:46:55.989Z,9.20
2023-01-26T19:49:23.143Z,9.20
2023-01-26T19:51:54.479Z,8.50
2023-01-26T19:54:24.506Z,8.97
2023-01-26T19:56:51.797Z,7.90
2023-01-26T19:59:18.740Z,9.03
2023-01-26T20:01:45.463Z,8.97
2023-01-26T20:04:12.802Z,9.37
2023-01-26T20:06:39.685Z,8.07
2023-01-26T20:09:10.801Z,9.07
2023-01-26T20:11:37.599Z,8.93
2023-01-26T20:14:08.743Z,8.27
2023-01-26T20:16:36.102Z,8.93
2023-01-26T20:19:04.498Z,8.83
2023-01-26T20:21:32.440Z,8.50
2023-01-26T20:24:05.261Z,9.27
2023-01-26T20:26:33.465Z,10.00
2023-01-26T20:29:00.517Z,9.57
2023-01-26T20:31:27.873Z,9.10
2023-01-26T20:33:55.192Z,10.00
2023-01-26T20:36:25.246Z,10.63
2023-01-26T20:39:01.726Z,9.47
2023-01-26T20:41:30.495Z,10.70
2023-01-26T20:44:01.634Z,10.15
2023-01-26T20:46:33.696Z,9.93
2023-01-26T20:49:01.164Z,10.97
2023-01-26T20:51:36.007Z,10.65
2023-01-26T20:56:38.417Z,10.70
2023-01-26T20:59:06.957Z,10.17
2023-01-26T21:01:44.163Z,9.52
2023-01-26T21:04:10.901Z,8.33
2023-01-26T21:06:39.158Z,9.90
2023-01-26T21:09:06.070Z,10.13
2023-01-26T21:11:33.604Z,10.27
2023-01-26T21:14:02.117Z,9.20
2023-01-26T21:16:31.093Z,9.23
2023-01-26T21:18:58.517Z,9.87
2023-01-26T21:21:25.254Z,10.60
2023-01-26T21:23:52.473Z,10.00
2023-01-26T21:26:23.785Z,9.20
2023-01-26T21:28:59.815Z,10.60
2023-01-26T21:31:30.058Z,10.00
2023-01-26T21:34:02.970Z,8.25
2023-01-26T21:36:31.477Z,9.53
2023-01-26T21:38:59.990Z,9.77
2023-01-26T21:41:47.865Z,9.43
2023-01-26T21:44:23.396Z,9.43
2023-01-26T21:46:55.946Z,8.53
2023-01-26T21:49:23.945Z,9.60
2023-01-26T21:52:10.271Z,7.40
2023-01-26T21:54:37.150Z,8.27
2023-01-26T21:59:38.146Z,7.20
2023-01-26T22:02:04.810Z,7.40
2023-01-26T22:04:31.907Z,7.53
2023-01-26T22:07:02.060Z,8.23
2023-01-26T22:09:30.237Z,7.87
2023-01-26T22:11:56.880Z,8.07
2023-01-26T22:14:27.696Z,8.50
2023-01-26T22:16:56.804Z,9.23
2023-01-26T22:19:24.013Z,8.17
2023-01-26T22:21:53.608Z,9.53
2023-01-26T22:24:21.525Z,8.77
2023-01-26T22:26:49.221Z,8.23
2023-01-26T22:29:16.142Z,8.23
2023-01-26T22:31:43.179Z,7.85
2023-01-26T22:36:38.334Z,7.80
2023-01-26T22:39:05.187Z,8.10
2023-01-26T22:41:31.950Z,7.70
2023-01-26T22:44:01.890Z,9.20
2023-01-26T22:46:30.608Z,6.93
2023-01-26T22:48:58.879Z,8.55
2023-01-26T22:51:30.356Z,8.33
2023-01-26T22:53:58.427Z,9.20
2023-01-26T22:56:26.595Z,8.07
2023-01-26T22:59:00.279Z,8.47
2023-01-26T23:01:32.856Z,9.63
2023-01-26T23:04:00.929Z,9.00
2023-01-26T23:06:28.344Z,8.35
2023-01-26T23:08:55.449Z,9.97
2023-01-26T23:11:24.705Z,9.07
2023-01-26T23:13:53.339Z,9.80
2023-01-26T23:16:23.238Z,8.67
2023-01-26T23:18:50.771Z,10.17
2023-01-26T23:21:17.667Z,8.77
2023-01-26T23:23:44.845Z,8.97
2023-01-26T23:28:40.909Z,8.87
2023-01-26T23:31:09.033Z,9.10
2023-01-26T23:33:36.726Z,8.50
2023-01-26T23:36:04.448Z,9.03
2023-01-26T23:38:31.352Z,8.87
2023-01-26T23:41:00.477Z,9.10
2023-01-26T23:43:27.720Z,8.23
2023-01-26T23:45:56.745Z,8.77
2023-01-26T23:48:24.738Z,8.30
2023-01-26T23:51:08.938Z,8.63
2023-01-26T23:53:37.071Z,9.30
2023-01-26T23:56:10.322Z,9.33
2023-01-26T23:58:37.648Z,8.83
